createdAt,value
2023-09-24T00:00:17.426Z,16
2023-09-24T00:02:48.355Z,12
2023-09-24T00:05:19.746Z,12
2023-09-24T00:07:50.914Z,16
2023-09-24T00:10:21.743Z,14
2023-09-24T00:12:52.845Z,14
2023-09-24T00:15:23.292Z,11
2023-09-24T00:17:55.020Z,12
2023-09-24T00:20:24.193Z,14
2023-09-24T00:22:55.357Z,12
2023-09-24T00:25:27.179Z,12
2023-09-24T00:27:58.380Z,12
2023-09-24T00:30:29.086Z,15
2023-09-24T00:32:59.846Z,12
2023-09-24T00:35:30.734Z,13
2023-09-24T00:38:01.774Z,14
2023-09-24T00:40:32.396Z,17
2023-09-24T00:43:03.232Z,14
2023-09-24T00:45:33.889Z,16
2023-09-24T00:48:03.236Z,13
2023-09-24T00:50:34.948Z,8
2023-09-24T00:53:06.145Z,8
2023-09-24T00:55:37.042Z,12
2023-09-24T00:58:07.851Z,8
2023-09-24T01:00:38.965Z,10
2023-09-24T01:03:10.069Z,12
2023-09-24T01:05:41.009Z,12
2023-09-24T01:08:11.860Z,10
2023-09-24T01:10:40.900Z,13
2023-09-24T01:13:11.356Z,19
2023-09-24T01:15:41.764Z,9
2023-09-24T01:18:12.433Z,11
2023-09-24T01:20:41.320Z,11
2023-09-24T01:23:11.956Z,8
2023-09-24T01:25:42.476Z,7
2023-09-24T01:28:13.211Z,8
2023-09-24T01:30:44.055Z,4
2023-09-24T01:33:14.638Z,5
2023-09-24T01:35:43.552Z,11
2023-09-24T01:38:14.815Z,8
2023-09-24T01:40:46.147Z,6
2023-09-24T01:43:16.503Z,7
2023-09-24T01:45:47.280Z,11
2023-09-24T01:48:18.719Z,10
2023-09-24T01:50:48.218Z,9
2023-09-24T01:53:18.532Z,9
2023-09-24T01:55:48.995Z,11
2023-09-24T01:58:19.718Z,5
2023-09-24T02:00:50.312Z,9
2023-09-24T02:03:19.575Z,8
2023-09-24T02:05:50.458Z,6
2023-09-24T02:08:21.137Z,6
2023-09-24T02:10:52.305Z,8
2023-09-24T02:13:23.213Z,5
2023-09-24T02:15:54.675Z,4
2023-09-24T02:18:24.347Z,9
2023-09-24T02:20:55.596Z,8
2023-09-24T02:23:26.982Z,8
2023-09-24T02:25:58.144Z,6
2023-09-24T02:28:28.855Z,7
2023-09-24T02:30:59.715Z,9
2023-09-24T02:33:30.924Z,6
2023-09-24T02:36:01.983Z,4
2023-09-24T02:38:32.905Z,4
2023-09-24T02:41:04.096Z,6
2023-09-24T02:43:35.939Z,4
2023-09-24T02:46:07.244Z,6
2023-09-24T02:48:38.354Z,4
2023-09-24T02:51:09.782Z,7
2023-09-24T02:53:40.633Z,6
2023-09-24T02:56:11.852Z,4
2023-09-24T02:58:42.683Z,4
2023-09-24T03:01:13.593Z,6
2023-09-24T03:03:44.456Z,5
2023-09-24T03:06:15.669Z,8
2023-09-24T03:08:47.044Z,4
2023-09-24T03:11:17.684Z,8
2023-09-24T03:13:48.545Z,4
2023-09-24T03:16:19.833Z,6
2023-09-24T03:18:52.587Z,2
2023-09-24T03:21:23.903Z,4
2023-09-24T03:23:54.888Z,4
2023-09-24T03:26:26.054Z,4
2023-09-24T03:28:57.097Z,4
2023-09-24T03:31:28.261Z,6
2023-09-24T03:33:58.887Z,6
2023-09-24T03:36:29.287Z,7
2023-09-24T03:39:00.873Z,6
2023-09-24T03:41:32.119Z,4
2023-09-24T03:44:02.593Z,5
2023-09-24T03:46:33.283Z,5
2023-09-24T03:49:04.558Z,6
2023-09-24T03:51:35.543Z,4
2023-09-24T03:54:06.732Z,4
2023-09-24T03:56:37.496Z,7
2023-09-24T03:59:08.382Z,4
2023-09-24T04:01:40.046Z,4
2023-09-24T04:04:10.490Z,5
2023-09-24T04:06:41.663Z,7
2023-09-24T04:09:11.868Z,5
2023-09-24T04:11:42.769Z,5
2023-09-24T04:14:13.330Z,7
2023-09-24T04:16:45.030Z,6
2023-09-24T04:19:16.075Z,5
2023-09-24T04:21:46.628Z,5
2023-09-24T04:24:17.926Z,5
2023-09-24T04:26:48.579Z,5
2023-09-24T04:29:19.690Z,4
2023-09-24T04:31:50.346Z,7
2023-09-24T04:34:21.210Z,5
2023-09-24T04:36:51.347Z,5
2023-09-24T04:39:22.009Z,7
2023-09-24T04:41:53.027Z,5
2023-09-24T04:44:23.208Z,7
2023-09-24T04:46:53.931Z,5
2023-09-24T04:49:24.848Z,5
2023-09-24T04:51:55.857Z,6
2023-09-24T04:54:26.648Z,5
2023-09-24T04:56:57.937Z,7
2023-09-24T04:59:28.873Z,8
2023-09-24T05:01:59.600Z,5
2023-09-24T05:04:30.371Z,7
2023-09-24T05:07:00.577Z,5
2023-09-24T05:09:31.393Z,4
2023-09-24T05:12:02.545Z,4
2023-09-24T05:14:33.189Z,5
2023-09-24T05:17:03.801Z,9
2023-09-24T05:19:34.898Z,5
2023-09-24T05:22:05.178Z,15
2023-09-24T05:24:36.430Z,12
2023-09-24T05:27:06.733Z,5
2023-09-24T05:29:37.125Z,9
2023-09-24T05:32:08.017Z,10
2023-09-24T05:34:39.071Z,6
2023-09-24T05:37:09.737Z,12
2023-09-24T05:39:40.120Z,7
2023-09-24T05:42:11.018Z,7
2023-09-24T05:44:42.280Z,6
2023-09-24T05:47:12.662Z,5
2023-09-24T05:49:43.144Z,5
2023-09-24T05:52:13.420Z,5
2023-09-24T05:54:44.268Z,5
2023-09-24T05:57:15.127Z,5
2023-09-24T05:59:45.675Z,4
2023-09-24T06:02:16.284Z,7
2023-09-24T06:04:47.723Z,8
2023-09-24T06:07:18.963Z,4
2023-09-24T06:09:49.403Z,5
2023-09-24T06:12:18.711Z,11
2023-09-24T06:14:49.269Z,13
2023-09-24T06:17:19.323Z,11
2023-09-24T06:19:49.358Z,16
2023-09-24T06:22:19.397Z,7
2023-09-24T06:24:49.973Z,11
2023-09-24T06:27:19.207Z,35
2023-09-24T06:29:49.296Z,20
2023-09-24T06:32:20.593Z,12
2023-09-24T06:34:51.442Z,8
2023-09-24T06:37:22.013Z,15
2023-09-24T06:39:52.817Z,13
2023-09-24T06:42:23.374Z,19
2023-09-24T06:44:54.161Z,36
2023-09-24T06:47:24.639Z,11
2023-09-24T06:49:55.289Z,34
2023-09-24T06:52:26.271Z,14
2023-09-24T06:54:55.364Z,9
2023-09-24T06:57:26.417Z,8
2023-09-24T06:59:57.280Z,5
2023-09-24T07:02:27.853Z,9
2023-09-24T07:04:58.450Z,8
2023-09-24T07:07:29.085Z,11
2023-09-24T07:09:59.442Z,28
2023-09-24T07:12:30.604Z,12
2023-09-24T07:15:01.119Z,4
2023-09-24T07:17:31.603Z,7
2023-09-24T07:20:01.707Z,5
2023-09-24T07:22:35.559Z,9
2023-09-24T07:25:06.117Z,20
2023-09-24T07:27:36.858Z,67
2023-09-24T07:30:07.722Z,8
2023-09-24T07:32:39.011Z,40
2023-09-24T07:35:07.788Z,23
2023-09-24T07:37:38.872Z,59
2023-09-24T07:40:09.732Z,53
2023-09-24T07:42:42.532Z,31
2023-09-24T07:45:11.152Z,28
2023-09-24T07:47:41.529Z,13
2023-09-24T07:50:12.533Z,60
2023-09-24T07:52:42.941Z,15
2023-09-24T07:55:13.333Z,38
2023-09-24T07:57:44.107Z,12
2023-09-24T08:00:14.298Z,8
2023-09-24T08:02:45.287Z,43
2023-09-24T08:05:15.775Z,11
2023-09-24T08:07:45.985Z,8
2023-09-24T08:10:16.716Z,13
2023-09-24T08:12:47.355Z,9
2023-09-24T08:15:18.265Z,9
2023-09-24T08:17:48.640Z,11
2023-09-24T08:20:19.869Z,24
2023-09-24T08:22:50.216Z,5
2023-09-24T08:25:21.236Z,6
2023-09-24T08:27:51.851Z,13
2023-09-24T08:30:21.565Z,9
2023-09-24T08:32:52.027Z,9
2023-09-24T08:35:22.657Z,18
2023-09-24T08:37:53.550Z,12
2023-09-24T08:40:22.815Z,29
2023-09-24T08:42:53.389Z,9
2023-09-24T08:45:24.477Z,8
2023-09-24T08:47:55.395Z,10
2023-09-24T08:50:26.061Z,15
2023-09-24T08:52:57.783Z,10
2023-09-24T08:55:28.182Z,9
2023-09-24T08:57:57.363Z,12
2023-09-24T09:00:28.185Z,11
2023-09-24T09:02:59.826Z,6
2023-09-24T09:05:29.804Z,5
2023-09-24T09:08:00.204Z,9
2023-09-24T09:10:31.288Z,6
2023-09-24T09:13:01.634Z,11
2023-09-24T09:15:32.692Z,8
2023-09-24T09:18:03.533Z,10
2023-09-24T09:20:34.057Z,13
2023-09-24T09:23:04.936Z,12
2023-09-24T09:25:35.514Z,15
2023-09-24T09:28:05.889Z,11
2023-09-24T09:30:36.420Z,11
2023-09-24T09:33:06.913Z,12
2023-09-24T09:35:37.804Z,12
2023-09-24T09:38:08.191Z,12
2023-09-24T09:40:38.623Z,6
2023-09-24T09:43:09.055Z,11
2023-09-24T09:45:39.837Z,13
2023-09-24T09:48:10.436Z,8
2023-09-24T09:50:40.820Z,11
2023-09-24T09:53:12.574Z,12
2023-09-24T09:55:42.772Z,11
2023-09-24T09:58:22.660Z,12
2023-09-24T10:00:44.080Z,8
2023-09-24T10:03:15.077Z,8
2023-09-24T10:05:45.533Z,9
2023-09-24T10:08:15.773Z,8
2023-09-24T10:10:46.499Z,13
2023-09-24T10:13:16.835Z,12
2023-09-24T10:15:47.388Z,16
2023-09-24T10:18:17.962Z,11
2023-09-24T10:20:48.321Z,13
2023-09-24T10:23:18.820Z,13
2023-09-24T10:25:50.128Z,10
2023-09-24T10:28:27.485Z,8
2023-09-24T10:30:57.938Z,5
2023-09-24T10:33:28.546Z,7
2023-09-24T10:35:58.702Z,8
2023-09-24T10:38:29.858Z,6
2023-09-24T10:40:59.834Z,5
2023-09-24T10:43:29.928Z,8
2023-09-24T10:46:00.339Z,8
2023-09-24T10:48:44.362Z,8
2023-09-24T10:51:01.836Z,9
2023-09-24T10:53:32.781Z,8
2023-09-24T10:56:11.242Z,10
2023-09-24T10:58:33.765Z,9
2023-09-24T11:01:04.220Z,11
2023-09-24T11:03:35.591Z,8
2023-09-24T11:06:05.955Z,11
2023-09-24T11:08:36.754Z,10
2023-09-24T11:11:07.519Z,27
2023-09-24T11:13:38.217Z,35
2023-09-24T11:16:08.541Z,15
2023-09-24T11:18:39.019Z,25
2023-09-24T11:21:10.273Z,19
2023-09-24T11:23:42.612Z,16
2023-09-24T11:26:11.383Z,16
2023-09-24T11:28:42.547Z,14
2023-09-24T11:31:13.565Z,32
2023-09-24T11:33:44.123Z,25
2023-09-24T11:36:15.360Z,22
2023-09-24T11:38:45.780Z,44
2023-09-24T11:41:18.626Z,23
2023-09-24T11:43:49.120Z,29
2023-09-24T11:46:19.784Z,23
2023-09-24T11:48:50.848Z,28
2023-09-24T11:51:21.040Z,23
2023-09-24T11:53:51.211Z,21
2023-09-24T11:56:21.502Z,24
2023-09-24T11:58:52.019Z,24
2023-09-24T12:01:22.231Z,24
2023-09-24T12:03:52.605Z,28
2023-09-24T12:06:22.985Z,23
2023-09-24T12:08:52.292Z,25
2023-09-24T12:11:22.525Z,37
2023-09-24T12:13:52.851Z,26
2023-09-24T12:16:23.815Z,30
2023-09-24T12:18:54.650Z,43
2023-09-24T12:21:25.556Z,47
2023-09-24T12:23:55.802Z,28
2023-09-24T12:26:26.409Z,29
2023-09-24T12:29:02.980Z,20
2023-09-24T12:31:33.675Z,34
2023-09-24T12:34:04.286Z,32
2023-09-24T12:36:34.617Z,27
2023-09-24T12:39:05.085Z,30
2023-09-24T12:41:35.890Z,28
2023-09-24T12:44:06.262Z,29
2023-09-24T12:46:36.524Z,24
2023-09-24T12:49:05.570Z,40
2023-09-24T12:51:36.969Z,27
2023-09-24T12:54:07.884Z,28
2023-09-24T12:56:36.745Z,30
2023-09-24T12:59:07.850Z,34
2023-09-24T13:01:38.725Z,31
2023-09-24T13:04:09.664Z,28
2023-09-24T13:06:40.542Z,36
2023-09-24T13:09:11.167Z,32
2023-09-24T13:11:41.717Z,27
2023-09-24T13:14:12.541Z,30
2023-09-24T13:16:44.118Z,32
2023-09-24T13:19:15.252Z,31
2023-09-24T13:21:46.746Z,32
2023-09-24T13:24:16.750Z,38
2023-09-24T13:26:48.256Z,34
2023-09-24T13:29:18.282Z,28
2023-09-24T13:31:49.153Z,31
2023-09-24T13:34:19.732Z,37
2023-09-24T13:36:49.637Z,47
2023-09-24T13:39:20.460Z,31
2023-09-24T13:41:50.924Z,50
2023-09-24T13:44:21.782Z,65
2023-09-24T13:46:52.726Z,69
2023-09-24T13:49:23.707Z,73
2023-09-24T13:51:55.158Z,54
2023-09-24T13:54:25.290Z,44
2023-09-24T13:56:58.926Z,48
2023-09-24T13:59:29.218Z,43
2023-09-24T14:01:59.816Z,42
2023-09-24T14:04:30.232Z,37
2023-09-24T14:07:01.265Z,43
2023-09-24T14:09:31.359Z,44
2023-09-24T14:12:02.149Z,44
2023-09-24T14:14:33.106Z,43
2023-09-24T14:17:03.564Z,43
2023-09-24T14:19:34.493Z,42
2023-09-24T14:22:05.633Z,40
2023-09-24T14:24:35.976Z,44
2023-09-24T14:27:06.837Z,40
2023-09-24T14:29:37.552Z,47
2023-09-24T14:32:07.986Z,39
2023-09-24T14:34:37.643Z,47
2023-09-24T14:37:07.966Z,36
2023-09-24T14:39:38.940Z,43
2023-09-24T14:42:09.327Z,41
2023-09-24T14:44:40.115Z,48
2023-09-24T14:47:09.022Z,39
2023-09-24T14:49:39.515Z,37
2023-09-24T14:52:09.744Z,34
2023-09-24T14:54:40.169Z,32
2023-09-24T14:57:10.641Z,33
2023-09-24T14:59:40.954Z,32
2023-09-24T15:02:11.283Z,34
2023-09-24T15:04:41.503Z,33
2023-09-24T15:07:11.501Z,38
2023-09-24T15:09:41.992Z,39
2023-09-24T15:12:12.748Z,35
2023-09-24T15:14:43.401Z,35
2023-09-24T15:17:13.904Z,40
2023-09-24T15:19:45.260Z,44
2023-09-24T15:22:15.693Z,39
2023-09-24T15:24:46.883Z,51
2023-09-24T15:27:17.140Z,48
2023-09-24T15:29:48.434Z,50
2023-09-24T15:32:19.430Z,44
2023-09-24T15:34:50.055Z,39
2023-09-24T15:37:20.346Z,47
2023-09-24T15:39:51.543Z,43
2023-09-24T15:42:21.696Z,48
2023-09-24T15:44:51.978Z,36
2023-09-24T15:47:22.149Z,48
2023-09-24T15:49:53.602Z,43
2023-09-24T15:52:24.657Z,34
2023-09-24T15:54:55.199Z,32
2023-09-24T15:57:25.625Z,33
2023-09-24T15:59:56.670Z,30
2023-09-24T16:02:27.182Z,29
2023-09-24T16:04:58.080Z,23
2023-09-24T16:07:28.587Z,25
2023-09-24T16:09:59.007Z,28
2023-09-24T16:12:30.139Z,28
2023-09-24T16:15:00.855Z,28
2023-09-24T16:17:31.095Z,25
2023-09-24T16:20:01.463Z,28
2023-09-24T16:22:31.532Z,25
2023-09-24T16:25:01.925Z,25
2023-09-24T16:27:30.509Z,25
2023-09-24T16:30:00.719Z,22
2023-09-24T16:32:31.615Z,27
2023-09-24T16:35:02.554Z,34
2023-09-24T16:37:33.003Z,36
2023-09-24T16:40:03.276Z,39
2023-09-24T16:42:33.735Z,41
2023-09-24T16:45:04.432Z,40
2023-09-24T16:47:38.765Z,28
2023-09-24T16:50:08.793Z,33
2023-09-24T16:52:39.630Z,35
2023-09-24T16:55:10.622Z,29
2023-09-24T16:57:44.710Z,26
2023-09-24T17:00:14.891Z,29
2023-09-24T17:02:45.523Z,21
2023-09-24T17:05:15.871Z,23
2023-09-24T17:07:46.072Z,25
2023-09-24T17:10:16.501Z,20
2023-09-24T17:12:46.728Z,24
2023-09-24T17:15:17.998Z,20
2023-09-24T17:17:48.427Z,27
2023-09-24T17:20:19.389Z,26
2023-09-24T17:22:49.970Z,31
2023-09-24T17:25:20.656Z,35
2023-09-24T17:27:50.820Z,29
2023-09-24T17:30:21.158Z,28
2023-09-24T17:32:51.621Z,33
2023-09-24T17:35:22.365Z,40
2023-09-24T17:37:53.362Z,32
2023-09-24T17:40:23.353Z,39
2023-09-24T17:42:56.514Z,43
2023-09-24T17:45:27.162Z,31
2023-09-24T17:47:57.525Z,26
2023-09-24T17:50:28.407Z,29
2023-09-24T17:52:58.813Z,35
2023-09-24T17:55:28.920Z,44
2023-09-24T17:57:59.180Z,35
2023-09-24T18:00:29.576Z,40
2023-09-24T18:02:59.685Z,41
2023-09-24T18:05:29.883Z,28
2023-09-24T18:08:00.006Z,28
2023-09-24T18:10:30.203Z,28
2023-09-24T18:13:00.716Z,34
2023-09-24T18:15:30.907Z,31
2023-09-24T18:18:01.735Z,47
2023-09-24T18:20:32.001Z,31
2023-09-24T18:23:02.452Z,33
2023-09-24T18:25:32.775Z,24
2023-09-24T18:28:03.058Z,21
2023-09-24T18:30:33.508Z,24
2023-09-24T18:33:03.687Z,28
2023-09-24T18:35:33.635Z,27
2023-09-24T18:38:04.265Z,29
2023-09-24T18:40:34.545Z,28
2023-09-24T18:43:04.686Z,33
2023-09-24T18:45:35.172Z,33
2023-09-24T18:48:05.581Z,35
2023-09-24T18:50:35.836Z,34
2023-09-24T18:53:06.162Z,29
2023-09-24T18:55:36.864Z,32
2023-09-24T18:58:07.172Z,31
2023-09-24T19:00:36.090Z,37
2023-09-24T19:03:07.303Z,29
2023-09-24T19:05:37.454Z,17
2023-09-24T19:08:06.431Z,23
2023-09-24T19:10:36.624Z,15
2023-09-24T19:13:06.954Z,16
2023-09-24T19:15:36.748Z,15
2023-09-24T19:18:07.179Z,19
2023-09-24T19:20:37.609Z,17
2023-09-24T19:23:07.814Z,20
2023-09-24T19:25:38.384Z,15
2023-09-24T19:28:08.834Z,12
2023-09-24T19:30:39.447Z,23
2023-09-24T19:33:08.323Z,15
2023-09-24T19:35:38.908Z,17
2023-09-24T19:38:09.259Z,17
2023-09-24T19:40:40.102Z,18
2023-09-24T19:43:10.517Z,25
2023-09-24T19:45:41.483Z,25
2023-09-24T19:48:11.849Z,28
2023-09-24T19:50:42.076Z,23
2023-09-24T19:53:12.658Z,23
2023-09-24T19:55:42.982Z,20
2023-09-24T19:58:13.245Z,28
2023-09-24T20:00:44.796Z,29
2023-09-24T20:03:15.340Z,21
2023-09-24T20:05:45.679Z,23
2023-09-24T20:08:16.030Z,20
2023-09-24T20:10:45.935Z,24
2023-09-24T20:13:16.906Z,20
2023-09-24T20:15:47.314Z,17
2023-09-24T20:18:17.588Z,23
2023-09-24T20:20:47.976Z,21
2023-09-24T20:23:18.246Z,24
2023-09-24T20:25:48.743Z,23
2023-09-24T20:28:19.444Z,23
2023-09-24T20:30:47.870Z,23
2023-09-24T20:33:28.415Z,14
2023-09-24T20:35:46.746Z,24
2023-09-24T20:38:16.928Z,24
2023-09-24T20:40:47.284Z,27
2023-09-24T20:43:16.264Z,21
2023-09-24T20:45:46.494Z,19
2023-09-24T20:48:17.203Z,21
2023-09-24T20:50:47.358Z,36
2023-09-24T20:53:17.849Z,41
2023-09-24T20:55:49.092Z,37
2023-09-24T20:58:19.658Z,36
2023-09-24T21:00:50.184Z,29
2023-09-24T21:03:20.514Z,25
2023-09-24T21:05:50.810Z,21
2023-09-24T21:08:21.478Z,24
2023-09-24T21:10:51.716Z,24
2023-09-24T21:13:22.102Z,25
2023-09-24T21:15:52.853Z,28
2023-09-24T21:18:23.220Z,33
2023-09-24T21:20:53.595Z,27
2023-09-24T21:23:24.149Z,29
2023-09-24T21:25:56.827Z,24
2023-09-24T21:28:26.045Z,27
2023-09-24T21:30:56.703Z,28
2023-09-24T21:33:27.486Z,26
2023-09-24T21:35:57.311Z,23
2023-09-24T21:38:27.945Z,21
2023-09-24T21:40:58.645Z,21
2023-09-24T21:43:29.133Z,21
2023-09-24T21:46:00.101Z,28
2023-09-24T21:48:31.089Z,27
2023-09-24T21:51:01.221Z,31
2023-09-24T21:53:31.457Z,28
2023-09-24T21:56:01.724Z,35
2023-09-24T21:58:32.110Z,23
2023-09-24T22:01:02.604Z,31
2023-09-24T22:03:33.169Z,63
2023-09-24T22:06:03.496Z,42
2023-09-24T22:08:32.564Z,52
2023-09-24T22:11:02.875Z,49
2023-09-24T22:13:33.558Z,36
2023-09-24T22:16:04.242Z,29
2023-09-24T22:18:34.424Z,38
2023-09-24T22:21:04.403Z,22
2023-09-24T22:23:34.788Z,26
2023-09-24T22:26:04.840Z,28
2023-09-24T22:28:35.469Z,28
2023-09-24T22:31:06.235Z,51
2023-09-24T22:33:35.391Z,48
2023-09-24T22:36:05.717Z,25
2023-09-24T22:38:36.479Z,31
2023-09-24T22:41:07.060Z,19
2023-09-24T22:43:37.575Z,27
2023-09-24T22:46:06.472Z,25
2023-09-24T22:48:37.011Z,20
2023-09-24T22:51:07.293Z,21
2023-09-24T22:53:37.716Z,17
2023-09-24T22:56:08.095Z,15
2023-09-24T22:58:38.818Z,15
2023-09-24T23:01:08.984Z,13
2023-09-24T23:03:39.361Z,15
2023-09-24T23:06:09.690Z,23
2023-09-24T23:08:40.160Z,20
2023-09-24T23:11:10.777Z,19
2023-09-24T23:13:41.155Z,28
2023-09-24T23:16:11.850Z,33
2023-09-24T23:18:42.184Z,28
2023-09-24T23:21:12.719Z,20
2023-09-24T23:23:43.165Z,28
2023-09-24T23:26:13.945Z,25
2023-09-24T23:28:44.503Z,21
2023-09-24T23:31:15.231Z,29
2023-09-24T23:33:45.818Z,28
2023-09-24T23:36:16.180Z,33
2023-09-24T23:38:46.767Z,21
2023-09-24T23:41:17.069Z,25
2023-09-24T23:43:48.437Z,20
2023-09-24T23:46:18.873Z,17
2023-09-24T23:48:50.184Z,20
2023-09-24T23:51:19.217Z,27
2023-09-24T23:53:50.030Z,27
2023-09-24T23:56:20.733Z,22
2023-09-24T23:58:51.363Z,28
